Time;durP1;ratioP1;P1;durP2;ratioP2;P2;SDS_P1;SDS_P2;PMS_P1;PMS_P2;Temp;Humidity;BMP_temperature;BMP_pressure;BME280_temperature;BME280_humidity;BME280_pressure;Samples;Min_cycle;Max_cycle;Signal;HPM_P1;HPM_P2
2022/11/14 00:00:39;;;;;;;9.07;5.32;;;25.70;99.90;;;;;;4994656;28;20050;-48
2022/11/14 00:03:07;;;;;;;12.00;5.50;;;25.70;99.90;;;;;;4994896;28;20018;-48
2022/11/14 00:05:37;;;;;;;9.15;5.15;;;25.70;99.90;;;;;;4994889;28;20044;-48
2022/11/14 00:08:02;;;;;;;11.88;6.03;;;25.70;99.90;;;;;;4994965;28;20383;-48
2022/11/14 00:10:28;;;;;;;12.68;6.10;;;25.70;99.90;;;;;;4995218;28;20025;-48
2022/11/14 00:12:54;;;;;;;10.55;5.93;;;25.70;99.90;;;;;;4994654;28;20030;-48
2022/11/14 00:15:20;;;;;;;10.60;4.97;;;25.70;99.90;;;;;;4978706;28;20038;-47
2022/11/14 00:17:45;;;;;;;14.77;5.95;;;25.60;99.90;;;;;;4977536;28;20028;-47
2022/11/14 00:20:12;;;;;;;11.80;5.30;;;25.60;99.90;;;;;;4994862;28;20030;-48
2022/11/14 00:22:38;;;;;;;13.10;5.97;;;25.60;99.90;;;;;;4994662;28;20650;-47
2022/11/14 00:25:04;;;;;;;7.90;5.00;;;25.60;99.90;;;;;;4994752;28;20110;-47
2022/11/14 00:27:30;;;;;;;12.40;5.50;;;25.60;99.90;;;;;;4994699;28;20077;-48
2022/11/14 00:29:55;;;;;;;10.10;5.72;;;25.60;99.90;;;;;;4994655;28;20035;-47
2022/11/14 00:32:22;;;;;;;10.95;6.18;;;25.60;99.90;;;;;;4994425;28;20026;-48
2022/11/14 00:34:48;;;;;;;11.90;5.63;;;25.60;99.90;;;;;;4991617;28;20046;-47
2022/11/14 00:37:14;;;;;;;11.35;5.60;;;25.50;99.90;;;;;;4994504;28;20019;-48
2022/11/14 00:39:39;;;;;;;10.52;5.60;;;25.50;99.90;;;;;;4994782;28;20026;-48
2022/11/14 00:42:05;;;;;;;11.40;5.95;;;25.50;99.90;;;;;;4994186;28;20023;-48
2022/11/14 00:44:31;;;;;;;9.32;5.72;;;25.50;99.90;;;;;;4994829;28;20073;-48
2022/11/14 00:46:57;;;;;;;9.25;5.82;;;25.50;99.90;;;;;;4994250;28;20407;-47
2022/11/14 00:49:23;;;;;;;11.50;6.82;;;25.50;99.90;;;;;;4994308;28;20478;-48
2022/11/14 00:51:48;;;;;;;6.60;5.22;;;25.50;99.90;;;;;;4993252;28;20030;-47
2022/11/14 00:54:14;;;;;;;10.73;6.00;;;25.50;99.90;;;;;;4977442;28;20113;-47
2022/11/14 00:56:40;;;;;;;11.75;6.45;;;25.50;99.90;;;;;;4994024;28;20026;-47
2022/11/14 00:59:06;;;;;;;11.90;5.57;;;25.40;99.90;;;;;;5007251;23;20398;-54
2022/11/14 01:01:32;;;;;;;12.02;5.72;;;25.40;99.90;;;;;;4991928;28;20057;-52
2022/11/14 01:03:57;;;;;;;11.13;5.95;;;25.40;99.90;;;;;;4993854;28;20023;-52
2022/11/14 01:06:23;;;;;;;14.65;6.82;;;25.40;99.90;;;;;;4994106;28;20383;-53
2022/11/14 01:08:50;;;;;;;9.27;6.18;;;25.40;99.90;;;;;;4992918;28;20018;-52
2022/11/14 01:11:18;;;;;;;12.85;6.20;;;25.40;99.90;;;;;;4994262;28;20029;-53
2022/11/14 01:13:43;;;;;;;13.98;6.35;;;25.40;99.90;;;;;;4994151;28;20242;-53
2022/11/14 01:16:10;;;;;;;13.65;6.43;;;25.40;99.90;;;;;;4991524;28;20025;-52
2022/11/14 01:18:38;;;;;;;14.52;6.43;;;25.30;99.90;;;;;;4993671;28;20033;-52
2022/11/14 01:21:07;;;;;;;16.20;7.15;;;25.30;99.90;;;;;;4992854;28;20026;-51
2022/11/14 01:23:34;;;;;;;12.88;7.43;;;25.30;99.90;;;;;;4993250;28;20014;-51
2022/11/14 01:26:05;;;;;;;11.57;6.50;;;25.30;99.90;;;;;;4991386;28;20084;-52
2022/11/14 01:28:31;;;;;;;14.82;7.55;;;25.30;99.90;;;;;;4990432;28;20399;-51
2022/11/14 01:31:07;;;;;;;12.80;7.53;;;25.30;99.90;;;;;;4992481;28;20037;-51
2022/11/14 01:33:33;;;;;;;10.52;6.95;;;25.30;99.90;;;;;;4992914;28;20575;-52
2022/11/14 01:35:59;;;;;;;9.75;6.70;;;25.30;99.90;;;;;;4992927;28;20109;-51
2022/11/14 01:38:25;;;;;;;9.52;6.38;;;25.30;99.90;;;;;;4993066;28;20018;-51
2022/11/14 01:40:50;;;;;;;10.52;7.22;;;25.30;99.90;;;;;;4993587;28;20574;-51
2022/11/14 01:43:24;;;;;;;14.38;7.50;;;25.30;99.90;;;;;;4993068;28;20478;-52
2022/11/14 01:45:57;;;;;;;11.40;6.53;;;25.30;99.90;;;;;;4991205;28;20022;-51
2022/11/14 01:48:37;;;;;;;12.15;7.25;;;25.30;99.90;;;;;;4992114;28;20026;-51
2022/11/14 01:51:25;;;;;;;12.38;6.80;;;25.30;99.90;;;;;;4990405;28;20022;-52
2022/11/14 01:53:53;;;;;;;10.73;6.93;;;25.20;99.90;;;;;;4992844;28;20027;-51
2022/11/14 01:56:32;;;;;;;13.30;7.43;;;25.20;99.90;;;;;;4992915;28;20569;-51
2022/11/14 01:59:06;;;;;;;13.18;7.30;;;25.20;99.90;;;;;;4992455;28;20033;-53
2022/11/14 02:01:35;;;;;;;14.85;6.90;;;25.20;99.90;;;;;;4991943;28;20402;-52
2022/11/14 02:04:02;;;;;;;11.77;7.32;;;25.20;99.90;;;;;;4982303;28;20027;-56
2022/11/14 02:06:29;;;;;;;;;;;25.20;99.90;;;;;;4975357;28;20038;-51
2022/11/14 02:08:58;;;;;;;9.52;6.20;;;25.20;99.90;;;;;;4982163;28;19906;-52
2022/11/14 02:11:27;;;;;;;13.25;7.25;;;25.20;99.90;;;;;;4993361;28;20034;-51
2022/11/14 02:13:53;;;;;;;12.23;6.55;;;25.20;99.90;;;;;;4992489;28;20404;-52
2022/11/14 02:16:19;;;;;;;10.85;7.18;;;25.20;99.90;;;;;;4994693;28;20096;-52
2022/11/14 02:18:45;;;;;;;11.55;6.80;;;25.20;99.90;;;;;;4992904;28;20023;-51
2022/11/14 02:21:10;;;;;;;10.88;6.97;;;25.20;99.90;;;;;;4985973;28;20031;-52
2022/11/14 02:23:36;;;;;;;13.55;6.97;;;25.10;99.90;;;;;;4975693;28;20085;-52
2022/11/14 02:26:02;;;;;;;13.02;6.05;;;25.10;99.90;;;;;;4975596;28;20097;-52
2022/11/14 02:28:28;;;;;;;9.77;6.15;;;25.10;99.90;;;;;;4981704;28;20066;-53
2022/11/14 02:30:54;;;;;;;12.88;8.25;;;25.10;99.90;;;;;;4988861;28;20157;-51
2022/11/14 02:33:20;;;;;;;11.15;7.32;;;25.10;99.90;;;;;;4984904;28;20022;-51
2022/11/14 02:35:45;;;;;;;12.50;7.13;;;25.10;99.90;;;;;;4982541;28;20033;-51
2022/11/14 02:38:12;;;;;;;12.25;6.63;;;25.10;99.90;;;;;;4982329;28;20019;-52
2022/11/14 02:40:38;;;;;;;12.60;6.78;;;25.10;99.90;;;;;;4991770;28;20053;-51
2022/11/14 02:43:04;;;;;;;12.38;6.45;;;25.10;99.90;;;;;;4994688;28;20026;-52
2022/11/14 02:45:29;;;;;;;11.82;6.88;;;25.10;99.90;;;;;;4994606;28;20034;-52
2022/11/14 02:47:55;;;;;;;10.82;6.80;;;25.10;99.90;;;;;;4995213;28;20022;-52
2022/11/14 02:50:21;;;;;;;13.43;7.20;;;25.10;99.90;;;;;;4994701;28;20022;-51
2022/11/14 02:52:47;;;;;;;11.10;7.25;;;25.10;99.90;;;;;;4988732;28;20383;-52
2022/11/14 02:55:12;;;;;;;15.52;7.13;;;25.10;99.90;;;;;;4989512;28;20035;-52
2022/11/14 02:57:38;;;;;;;10.55;6.75;;;25.10;99.90;;;;;;4985174;28;20375;-51
2022/11/14 03:00:05;;;;;;;13.77;7.03;;;25.00;99.90;;;;;;4986024;28;20061;-52
2022/11/14 03:02:31;;;;;;;12.90;6.10;;;25.00;99.90;;;;;;4986698;28;20026;-51
2022/11/14 03:04:56;;;;;;;12.95;6.63;;;25.00;99.90;;;;;;4980090;28;20046;-51
2022/11/14 03:07:22;;;;;;;12.35;6.68;;;25.00;99.90;;;;;;4990706;28;20121;-51
2022/11/14 03:09:48;;;;;;;11.90;6.60;;;25.00;99.90;;;;;;4994276;28;20030;-52
2022/11/14 03:12:18;;;;;;;9.90;6.18;;;25.00;99.90;;;;;;4994388;28;20105;-52
2022/11/14 03:14:44;;;;;;;13.63;7.43;;;25.00;99.90;;;;;;4989373;28;20039;-52
2022/11/14 03:17:10;;;;;;;11.15;6.53;;;25.00;99.90;;;;;;4993204;28;20339;-52
2022/11/14 03:19:35;;;;;;;14.02;6.80;;;25.00;99.90;;;;;;4993806;28;20097;-53
2022/11/14 03:22:01;;;;;;;12.80;6.65;;;25.00;99.90;;;;;;4994264;28;20109;-52
2022/11/14 03:24:27;;;;;;;10.65;6.25;;;25.00;99.90;;;;;;5008847;28;20030;-52
2022/11/14 03:26:53;;;;;;;11.25;6.22;;;25.00;99.90;;;;;;4993116;28;20033;-52
2022/11/14 03:29:18;;;;;;;12.18;6.20;;;25.00;99.90;;;;;;4993411;28;20496;-53
2022/11/14 03:31:44;;;;;;;17.48;8.23;;;25.00;99.90;;;;;;4993339;28;20390;-52
2022/11/14 03:34:10;;;;;;;11.80;6.03;;;24.90;99.90;;;;;;4993888;28;20034;-53
2022/11/14 03:36:37;;;;;;;10.55;6.40;;;24.90;99.90;;;;;;4994098;28;20094;-52
2022/11/14 03:39:03;;;;;;;11.15;6.30;;;24.90;99.90;;;;;;4994017;28;20022;-53
2022/11/14 03:41:29;;;;;;;9.88;5.93;;;24.90;99.90;;;;;;4993989;28;20098;-53
2022/11/14 03:43:55;;;;;;;9.57;6.03;;;24.90;99.90;;;;;;4993900;28;20030;-52
2022/11/14 03:46:20;;;;;;;12.25;7.30;;;24.90;99.90;;;;;;4994038;28;20045;-52
2022/11/14 03:48:46;;;;;;;11.15;5.85;;;24.90;99.90;;;;;;4993880;28;20033;-52
2022/11/14 03:51:13;;;;;;;17.15;6.95;;;24.90;99.90;;;;;;4993897;28;20033;-52
2022/11/14 03:53:38;;;;;;;12.13;6.00;;;24.90;99.90;;;;;;4993720;28;20425;-52
2022/11/14 03:56:04;;;;;;;12.45;6.03;;;24.90;99.90;;;;;;4994065;28;20114;-52
2022/11/14 03:58:30;;;;;;;8.88;5.50;;;24.80;99.90;;;;;;4993705;28;20055;-52
2022/11/14 04:00:56;;;;;;;12.23;6.25;;;24.80;99.90;;;;;;4994147;28;20406;-52
2022/11/14 04:03:23;;;;;;;14.32;7.72;;;24.80;99.90;;;;;;4992405;28;20465;-52
2022/11/14 04:05:49;;;;;;;14.07;7.03;;;24.80;99.90;;;;;;4994059;28;20034;-53
2022/11/14 04:08:15;;;;;;;9.23;6.07;;;24.80;99.90;;;;;;4993888;28;20101;-52
2022/11/14 04:10:40;;;;;;;9.73;5.47;;;24.80;99.90;;;;;;4993981;28;20439;-52
2022/11/14 04:13:07;;;;;;;10.48;6.40;;;24.80;99.90;;;;;;4992446;28;20031;-52
2022/11/14 04:15:33;;;;;;;13.82;6.47;;;24.80;99.90;;;;;;4993570;28;20038;-52
2022/11/14 04:17:59;;;;;;;10.73;5.78;;;24.70;99.90;;;;;;4993493;28;20098;-52
2022/11/14 04:20:25;;;;;;;12.20;6.72;;;24.80;99.90;;;;;;4993528;28;20023;-52
2022/11/14 04:22:50;;;;;;;12.73;6.55;;;24.70;99.90;;;;;;4993770;28;20497;-52
2022/11/14 04:25:16;;;;;;;8.90;6.00;;;24.80;99.90;;;;;;4993698;28;20327;-52
2022/11/14 04:27:42;;;;;;;9.73;5.82;;;24.70;99.90;;;;;;4992429;28;20487;-52
2022/11/14 04:30:09;;;;;;;8.57;5.57;;;24.70;99.90;;;;;;4993539;28;20077;-52
2022/11/14 04:32:34;;;;;;;10.93;6.10;;;24.70;99.90;;;;;;4992100;28;20053;-52
2022/11/14 04:35:00;;;;;;;12.90;6.25;;;24.70;99.90;;;;;;4993462;28;20482;-52
2022/11/14 04:37:26;;;;;;;9.98;6.03;;;24.70;99.90;;;;;;4993422;28;20471;-53
2022/11/14 04:39:52;;;;;;;8.57;5.95;;;24.70;99.90;;;;;;4993492;28;20022;-52
2022/11/14 04:42:18;;;;;;;9.27;5.72;;;24.70;99.90;;;;;;4994826;28;20088;-52
2022/11/14 04:44:44;;;;;;;7.78;5.57;;;24.70;99.90;;;;;;4996998;28;20037;-52
2022/11/14 04:47:09;;;;;;;13.63;5.88;;;24.70;99.90;;;;;;4997146;28;20109;-52
2022/11/14 04:49:35;;;;;;;9.02;5.18;;;24.60;99.90;;;;;;5012152;28;20029;-52
2022/11/14 04:52:01;;;;;;;13.20;5.93;;;24.60;99.90;;;;;;4997130;28;20028;-52
2022/11/14 04:54:27;;;;;;;7.85;5.43;;;24.60;99.90;;;;;;4996716;28;20080;-51
2022/11/14 04:56:52;;;;;;;8.35;5.13;;;24.60;99.90;;;;;;4979478;28;20034;-51
2022/11/14 05:01:51;;;;;;;11.40;6.25;;;24.60;99.90;;;;;;4938359;29;20047;-45
2022/11/14 05:04:17;;;;;;;9.68;6.00;;;24.60;99.90;;;;;;4938744;29;20090;-45
2022/11/14 05:06:42;;;;;;;14.55;5.97;;;24.60;99.90;;;;;;4937545;29;20027;-46
2022/11/14 05:09:08;;;;;;;9.77;5.28;;;24.60;99.90;;;;;;4938655;29;20103;-46
2022/11/14 05:11:34;;;;;;;11.85;5.75;;;24.50;99.90;;;;;;4938544;29;20428;-46
2022/11/14 05:14:00;;;;;;;7.63;4.95;;;24.60;99.90;;;;;;4938472;29;20031;-46
2022/11/14 05:16:25;;;;;;;8.88;5.40;;;24.60;99.90;;;;;;4939082;29;20110;-46
2022/11/14 05:18:53;;;;;;;14.85;7.35;;;24.50;99.90;;;;;;4938760;29;20035;-45
2022/11/14 05:21:19;;;;;;;10.63;6.20;;;24.50;99.90;;;;;;4938722;29;20027;-45
2022/11/14 05:23:45;;;;;;;12.35;6.82;;;24.50;99.90;;;;;;4938505;29;20023;-46
2022/11/14 05:26:15;;;;;;;9.02;5.63;;;24.50;99.90;;;;;;4938322;29;20028;-45
2022/11/14 05:28:41;;;;;;;15.65;6.75;;;24.50;99.90;;;;;;4938299;29;20498;-46
2022/11/14 05:31:13;;;;;;;7.13;5.22;;;24.50;99.90;;;;;;4938303;29;20106;-45
2022/11/14 05:33:39;;;;;;;11.63;6.45;;;24.50;99.90;;;;;;4938398;29;20098;-46
2022/11/14 05:36:07;;;;;;;10.85;5.43;;;24.50;99.90;;;;;;4938315;29;20417;-45
2022/11/14 05:38:34;;;;;;;10.52;5.82;;;24.50;99.90;;;;;;4938098;29;20028;-45
2022/11/14 05:41:15;;;;;;;7.63;5.30;;;24.40;99.90;;;;;;4938294;29;20036;-46
2022/11/14 05:43:40;;;;;;;11.77;6.57;;;24.50;99.90;;;;;;4938247;29;20032;-46
2022/11/14 05:46:09;;;;;;;10.65;5.32;;;24.40;99.90;;;;;;4938022;29;20031;-47
2022/11/14 05:48:35;;;;;;;6.78;4.75;;;24.40;99.90;;;;;;4938144;29;20039;-46
2022/11/14 05:51:03;;;;;;;14.43;5.70;;;24.40;99.90;;;;;;4938054;29;20032;-46
2022/11/14 05:53:29;;;;;;;;;;;24.40;99.90;;;;;;4937530;29;20040;-46
2022/11/14 05:55:58;;;;;;;7.93;5.05;;;24.40;99.90;;;;;;4937794;29;19997;-46
2022/11/14 05:58:24;;;;;;;12.85;5.75;;;24.40;99.90;;;;;;4937868;29;20028;-46
2022/11/14 06:00:50;;;;;;;8.60;5.60;;;24.40;99.90;;;;;;4936603;29;20066;-46
2022/11/14 06:03:15;;;;;;;15.18;5.57;;;24.30;99.90;;;;;;4937728;29;20024;-46
2022/11/14 06:05:42;;;;;;;10.30;5.88;;;24.30;99.90;;;;;;4937849;29;20392;-46
2022/11/14 06:08:07;;;;;;;13.80;5.95;;;24.30;99.90;;;;;;4937863;29;20031;-46
2022/11/14 06:10:36;;;;;;;11.75;6.00;;;24.30;99.90;;;;;;4937507;29;20531;-46
2022/11/14 06:13:02;;;;;;;9.02;5.60;;;24.30;99.90;;;;;;4937757;29;20501;-46
2022/11/14 06:15:28;;;;;;;9.63;5.22;;;24.30;99.90;;;;;;4937562;29;20039;-47
2022/11/14 06:17:54;;;;;;;10.77;5.03;;;24.30;99.90;;;;;;4937407;29;20511;-46
2022/11/14 06:20:20;;;;;;;9.25;5.00;;;24.30;99.90;;;;;;4937411;29;20055;-46
2022/11/14 06:22:46;;;;;;;8.52;4.80;;;24.30;99.90;;;;;;4937459;29;20044;-47
2022/11/14 06:25:12;;;;;;;14.95;6.13;;;24.30;99.90;;;;;;4937375;29;20048;-46
2022/11/14 06:27:37;;;;;;;10.18;5.22;;;24.20;99.90;;;;;;4937306;29;20024;-46
2022/11/14 06:30:03;;;;;;;10.80;5.10;;;24.30;99.90;;;;;;4937112;29;20020;-46
2022/11/14 06:32:29;;;;;;;9.85;5.75;;;24.20;99.90;;;;;;4937132;29;20436;-47
2022/11/14 06:34:55;;;;;;;11.98;5.40;;;24.20;99.90;;;;;;4937014;29;20051;-47
2022/11/14 06:37:21;;;;;;;8.65;5.65;;;24.20;99.90;;;;;;4937484;29;20056;-47
2022/11/14 06:39:47;;;;;;;10.10;5.03;;;24.20;99.90;;;;;;4937335;29;20122;-47
2022/11/14 06:42:15;;;;;;;8.98;4.90;;;24.20;99.90;;;;;;4936991;29;20476;-46
2022/11/14 06:44:41;;;;;;;12.00;5.75;;;24.10;99.90;;;;;;4937045;29;20027;-47
2022/11/14 06:47:06;;;;;;;11.20;5.15;;;24.20;99.90;;;;;;4936919;29;20373;-48
2022/11/14 06:49:32;;;;;;;8.25;4.72;;;24.20;99.90;;;;;;4936659;29;20038;-47
2022/11/14 06:51:58;;;;;;;12.65;5.65;;;24.20;99.90;;;;;;4936575;29;20027;-47
2022/11/14 06:54:23;;;;;;;9.13;4.97;;;24.20;99.90;;;;;;4936620;29;20044;-47
2022/11/14 06:56:49;;;;;;;6.90;5.00;;;24.10;99.90;;;;;;4936866;29;20426;-47
2022/11/14 06:59:15;;;;;;;9.65;4.95;;;24.10;99.90;;;;;;4936649;29;20087;-46
2022/11/14 07:01:40;;;;;;;8.63;4.82;;;24.10;99.90;;;;;;4936525;29;20039;-46
2022/11/14 07:04:08;;;;;;;11.50;4.80;;;24.10;99.90;;;;;;4936741;29;20461;-46
2022/11/14 07:06:33;;;;;;;10.77;5.30;;;24.10;99.90;;;;;;4936570;29;20042;-47
2022/11/14 07:08:59;;;;;;;12.73;5.03;;;24.10;99.90;;;;;;4936722;29;20032;-47
2022/11/14 07:11:28;;;;;;;5.32;4.20;;;24.10;99.90;;;;;;4936709;29;20024;-46
2022/11/14 07:14:01;;;;;;;8.20;4.40;;;24.10;99.90;;;;;;4935780;29;20342;-46
2022/11/14 07:16:30;;;;;;;8.75;4.57;;;24.10;99.90;;;;;;4936243;29;20034;-46
2022/11/14 07:18:57;;;;;;;8.27;5.15;;;24.10;99.90;;;;;;4936357;29;20024;-47
2022/11/14 07:21:24;;;;;;;11.20;4.82;;;24.10;99.90;;;;;;4936389;29;20051;-47
2022/11/14 07:23:50;;;;;;;12.63;5.43;;;24.10;99.90;;;;;;4936492;29;20035;-47
2022/11/14 07:26:16;;;;;;;6.70;4.78;;;24.10;99.90;;;;;;4936205;29;20031;-47
2022/11/14 07:28:43;;;;;;;8.65;4.28;;;24.10;99.90;;;;;;4936239;29;20039;-47
2022/11/14 07:31:12;;;;;;;8.43;4.43;;;24.10;99.90;;;;;;4936129;29;20051;-47
2022/11/14 07:33:39;;;;;;;9.15;4.95;;;24.10;99.90;;;;;;4935943;29;20031;-47
2022/11/14 07:36:05;;;;;;;6.60;4.37;;;24.20;99.90;;;;;;4936087;29;20028;-47
2022/11/14 07:38:32;;;;;;;7.53;4.25;;;24.10;99.90;;;;;;4936037;29;20028;-47
2022/11/14 07:40:59;;;;;;;6.50;3.90;;;24.20;99.90;;;;;;4936172;29;20417;-47
2022/11/14 07:43:26;;;;;;;5.15;3.53;;;24.20;99.90;;;;;;4935990;29;20264;-48
2022/11/14 07:45:52;;;;;;;7.33;4.37;;;24.20;99.90;;;;;;4936012;29;20031;-47
2022/11/14 07:48:18;;;;;;;7.78;4.65;;;24.20;99.90;;;;;;4936088;29;20024;-47
2022/11/14 07:50:44;;;;;;;10.13;4.78;;;24.30;99.90;;;;;;4935963;29;20059;-47
2022/11/14 07:53:10;;;;;;;7.75;4.32;;;24.30;99.90;;;;;;4936117;29;20020;-47
2022/11/14 07:55:37;;;;;;;8.70;4.20;;;24.30;99.90;;;;;;4935894;29;20044;-47
2022/11/14 07:58:02;;;;;;;6.88;3.75;;;24.30;99.90;;;;;;4936007;29;20028;-47
2022/11/14 08:00:28;;;;;;;12.15;4.68;;;24.40;99.90;;;;;;4935690;29;20523;-48
2022/11/14 08:02:54;;;;;;;7.47;4.50;;;24.40;99.90;;;;;;4935872;29;20028;-47
2022/11/14 08:05:20;;;;;;;6.45;4.68;;;24.50;99.90;;;;;;4935848;29;20461;-48
2022/11/14 08:07:49;;;;;;;11.60;5.00;;;24.50;99.90;;;;;;4935983;29;20114;-47
2022/11/14 08:10:15;;;;;;;8.38;4.45;;;24.50;99.90;;;;;;4935900;29;20484;-47
2022/11/14 08:12:40;;;;;;;8.13;4.80;;;24.50;99.90;;;;;;4935846;29;20074;-47
2022/11/14 08:15:07;;;;;;;7.72;4.50;;;24.50;99.90;;;;;;4935727;29;20392;-48
2022/11/14 08:17:33;;;;;;;6.97;4.35;;;24.60;99.90;;;;;;4937295;29;20040;-48
2022/11/14 08:19:59;;;;;;;8.40;4.47;;;24.70;99.90;;;;;;4939637;29;20035;-48
2022/11/14 08:22:25;;;;;;;8.52;4.40;;;24.70;99.90;;;;;;4939409;29;20031;-47
2022/11/14 08:24:51;;;;;;;7.13;4.75;;;24.70;99.90;;;;;;4939629;29;20111;-47
2022/11/14 08:27:16;;;;;;;5.95;4.40;;;24.70;99.90;;;;;;4939474;29;20553;-47
2022/11/14 08:29:42;;;;;;;9.73;5.38;;;24.80;99.90;;;;;;4939337;29;20027;-47
2022/11/14 08:32:09;;;;;;;7.00;5.00;;;24.80;99.90;;;;;;4938117;29;20487;-47
2022/11/14 08:34:35;;;;;;;7.22;4.57;;;24.90;99.90;;;;;;4939180;29;20040;-48
2022/11/14 08:37:02;;;;;;;9.05;4.72;;;24.90;99.90;;;;;;4939450;29;20106;-47
2022/11/14 08:39:28;;;;;;;7.35;4.53;;;25.00;99.90;;;;;;4939244;29;20027;-47
2022/11/14 08:41:54;;;;;;;8.98;4.75;;;25.00;99.90;;;;;;4937751;29;20035;-47
2022/11/14 08:44:20;;;;;;;9.05;4.93;;;25.00;99.90;;;;;;4939166;29;20481;-47
2022/11/14 08:46:46;;;;;;;8.32;4.50;;;25.10;99.90;;;;;;4939025;29;20031;-47
2022/11/14 08:49:11;;;;;;;9.13;4.88;;;25.10;99.90;;;;;;4938923;29;20024;-47
2022/11/14 08:51:37;;;;;;;10.25;4.97;;;25.20;99.90;;;;;;4938872;29;20031;-47
2022/11/14 08:54:03;;;;;;;8.10;5.10;;;25.30;99.90;;;;;;4938850;29;20031;-47
2022/11/14 08:56:29;;;;;;;7.75;5.53;;;25.30;99.90;;;;;;4939068;29;20106;-47
2022/11/14 08:58:54;;;;;;;8.90;4.60;;;25.30;99.90;;;;;;4939243;29;20171;-47
2022/11/14 09:01:20;;;;;;;9.43;5.15;;;25.40;99.90;;;;;;4938495;29;20048;-47
2022/11/14 09:03:46;;;;;;;7.05;5.07;;;25.40;99.90;;;;;;4938743;29;20094;-47
2022/11/14 09:06:11;;;;;;;10.00;4.80;;;25.40;99.90;;;;;;4939062;29;20044;-47
2022/11/14 09:08:37;;;;;;;10.18;5.90;;;25.50;99.90;;;;;;4938584;29;20098;-47
2022/11/14 09:11:05;;;;;;;11.95;5.45;;;25.60;99.90;;;;;;4938659;29;20171;-47
2022/11/14 09:13:34;;;;;;;10.52;6.10;;;25.60;99.90;;;;;;4938636;29;20046;-48
2022/11/14 09:16:00;;;;;;;12.55;5.70;;;25.70;99.90;;;;;;4938492;29;20106;-47
2022/11/14 09:18:26;;;;;;;7.45;5.28;;;25.70;99.90;;;;;;4938570;29;20031;-47
2022/11/14 09:20:52;;;;;;;10.60;5.82;;;25.80;99.90;;;;;;4938687;29;20271;-48
2022/11/14 09:23:18;;;;;;;8.73;5.95;;;25.80;99.90;;;;;;4938302;29;20027;-47
2022/11/14 09:25:43;;;;;;;9.63;6.15;;;25.80;99.90;;;;;;4938506;29;20050;-47
2022/11/14 09:28:09;;;;;;;10.60;6.18;;;25.90;99.90;;;;;;4937575;29;20027;-48
2022/11/14 09:30:36;;;;;;;10.05;6.03;;;25.90;99.90;;;;;;4936334;29;20051;-48
2022/11/14 09:33:03;;;;;;;8.07;5.57;;;26.00;99.90;;;;;;4938177;29;20024;-48
2022/11/14 09:35:30;;;;;;;9.82;6.40;;;26.00;99.90;;;;;;4938140;29;20092;-48
2022/11/14 09:38:14;;;;;;;13.43;7.50;;;26.00;99.90;;;;;;4938124;29;20535;-48
2022/11/14 09:40:56;;;;;;;9.90;6.63;;;26.10;99.90;;;;;;4938191;29;20070;-47
2022/11/14 09:43:37;;;;;;;9.63;6.53;;;26.10;99.90;;;;;;4938138;29;20020;-48
2022/11/14 09:46:12;;;;;;;16.15;7.60;;;26.10;99.90;;;;;;4938029;29;20028;-48
2022/11/14 09:48:38;;;;;;;11.15;6.65;;;26.20;99.90;;;;;;4936729;29;20023;-47
2022/11/14 09:51:13;;;;;;;11.50;6.75;;;26.20;99.90;;;;;;4936470;29;20035;-48
2022/11/14 09:53:47;;;;;;;10.50;7.05;;;26.30;99.90;;;;;;4937726;29;20027;-48
2022/11/14 09:56:25;;;;;;;10.70;6.78;;;26.30;99.90;;;;;;4937776;29;20032;-48
2022/11/14 09:58:54;;;;;;;12.55;7.00;;;26.30;99.90;;;;;;4937795;29;20020;-48
2022/11/14 10:01:48;;;;;;;11.85;7.60;;;26.40;99.90;;;;;;4937400;29;20054;-48
2022/11/14 10:04:28;;;;;;;13.85;7.95;;;26.40;99.90;;;;;;4937577;29;20031;-48
2022/11/14 10:07:22;;;;;;;14.75;8.00;;;26.50;99.90;;;;;;4937480;29;20031;-47
2022/11/14 10:10:20;;;;;;;11.13;8.00;;;26.50;99.90;;;;;;4937522;29;20020;-47
2022/11/14 10:13:00;;;;;;;13.60;8.25;;;26.60;99.90;;;;;;4937815;29;20059;-48
2022/11/14 10:15:46;;;;;;;12.23;7.93;;;26.60;99.90;;;;;;4937261;29;20043;-48
2022/11/14 10:18:42;;;;;;;14.07;8.10;;;26.70;99.90;;;;;;4937510;29;20087;-48
2022/11/14 10:21:22;;;;;;;14.57;8.23;;;26.70;99.90;;;;;;4937337;29;20034;-48
2022/11/14 10:24:24;;;;;;;18.35;9.05;;;26.80;99.90;;;;;;4937352;29;20532;-48
2022/11/14 10:27:06;;;;;;;16.40;8.90;;;26.90;99.90;;;;;;4937149;29;20046;-48
2022/11/14 10:29:47;;;;;;;15.65;8.65;;;26.90;99.90;;;;;;4937071;29;20039;-47
2022/11/14 10:32:34;;;;;;;15.40;8.55;;;26.90;99.90;;;;;;4937017;29;20031;-48
2022/11/14 10:35:03;;;;;;;13.50;9.05;;;27.00;99.90;;;;;;4936967;29;20035;-47
2022/11/14 10:37:38;;;;;;;15.85;9.75;;;27.00;99.90;;;;;;4935595;29;20062;-48
2022/11/14 10:40:20;;;;;;;13.98;9.10;;;27.10;99.90;;;;;;4936725;29;20532;-48
2022/11/14 10:42:49;;;;;;;20.00;9.65;;;27.10;99.90;;;;;;4936808;29;20424;-48
2022/11/14 10:45:30;;;;;;;14.80;9.48;;;27.10;99.90;;;;;;4936833;29;20027;-48
2022/11/14 10:48:01;;;;;;;12.63;8.98;;;27.20;99.90;;;;;;4936809;29;20028;-47
2022/11/14 10:51:02;;;;;;;17.48;9.70;;;27.20;99.90;;;;;;4936760;29;20024;-48
2022/11/14 10:53:48;;;;;;;12.95;9.73;;;27.30;99.90;;;;;;4936726;29;20024;-48
2022/11/14 10:56:14;;;;;;;11.80;9.00;;;27.30;99.90;;;;;;4936742;29;20043;-48
2022/11/14 10:58:41;;;;;;;15.07;9.50;;;27.40;99.90;;;;;;4936757;29;20028;-47
2022/11/14 11:01:36;;;;;;;16.95;9.73;;;27.40;99.90;;;;;;4936175;29;20102;-48
2022/11/14 11:04:10;;;;;;;15.63;9.98;;;27.40;99.90;;;;;;4936539;29;20067;-48
2022/11/14 11:06:36;;;;;;;13.60;9.25;;;27.50;99.90;;;;;;4936522;29;20065;-47
2022/11/14 11:12:22;;;;;;;14.10;8.88;;;27.60;99.90;;;;;;4936385;29;20075;-48
2022/11/14 11:15:29;;;;;;;14.18;8.93;;;27.60;99.90;;;;;;4936241;29;20039;-48
2022/11/14 11:17:58;;;;;;;;;;;27.60;99.90;;;;;;4896917;29;20024;-47
2022/11/14 11:20:26;;;;;;;12.63;9.43;;;27.70;99.90;;;;;;4896483;29;19908;-48
2022/11/14 11:23:09;;;;;;;13.07;9.23;;;27.70;99.90;;;;;;4917064;29;20044;-48
2022/11/14 11:25:36;;;;;;;12.55;9.02;;;27.70;99.90;;;;;;4936373;29;20385;-48
2022/11/14 11:28:02;;;;;;;;;;;27.70;99.90;;;;;;4936785;29;20135;-48
2022/11/14 11:30:28;;;;;;;14.90;8.83;;;27.70;99.90;;;;;;4936387;29;20378;-48
2022/11/14 11:32:54;;;;;;;12.77;9.38;;;27.80;99.90;;;;;;4935005;29;20032;-47
2022/11/14 11:35:20;;;;;;;11.05;8.65;;;27.80;99.90;;;;;;4932065;29;20039;-47
2022/11/14 11:37:56;;;;;;;16.15;9.35;;;27.80;99.90;;;;;;4933026;29;20016;-47
2022/11/14 11:40:27;;;;;;;15.23;9.43;;;27.80;99.90;;;;;;4933863;29;20028;-48
2022/11/14 11:43:09;;;;;;;13.95;8.85;;;27.80;99.90;;;;;;4931832;29;20058;-48
2022/11/14 11:45:35;;;;;;;12.85;8.85;;;27.80;99.90;;;;;;4935565;29;20524;-48
2022/11/14 11:48:16;;;;;;;12.20;8.32;;;27.90;99.90;;;;;;4932992;29;20016;-47
2022/11/14 11:50:42;;;;;;;16.70;9.27;;;27.90;99.90;;;;;;4935626;29;20445;-47
2022/11/14 11:53:33;;;;;;;13.20;8.52;;;27.90;99.90;;;;;;4935387;29;20392;-47
2022/11/14 11:56:11;;;;;;;14.30;9.07;;;27.90;99.90;;;;;;4935424;29;20051;-49
2022/11/14 11:58:44;;;;;;;15.82;4.95;;;27.90;99.90;;;;;;4935668;29;20024;-47
2022/11/14 12:01:14;;;;;;;15.00;6.28;;;27.90;99.90;;;;;;4935574;29;20056;-47
2022/11/14 12:03:49;;;;;;;16.25;8.60;;;27.80;99.90;;;;;;4931965;29;20020;-46
2022/11/14 12:06:24;;;;;;;18.00;7.10;;;27.70;99.90;;;;;;4935083;29;20027;-46
2022/11/14 12:09:04;;;;;;;11.38;3.92;;;27.40;99.90;;;;;;4933607;29;20102;-46
2022/11/14 12:11:36;;;;;;;12.93;5.47;;;27.10;99.90;;;;;;4935167;29;20019;-46
2022/11/14 12:14:31;;;;;;;12.50;5.20;;;26.80;99.90;;;;;;4931168;29;20036;-47
2022/11/14 12:17:09;;;;;;;14.63;3.95;;;26.60;99.90;;;;;;4934916;29;20036;-46
2022/11/14 12:19:43;;;;;;;11.43;5.60;;;26.40;99.90;;;;;;4935134;29;20465;-47
2022/11/14 12:22:21;;;;;;;10.07;3.72;;;26.30;99.90;;;;;;4935375;29;20035;-47
2022/11/14 12:25:25;;;;;;;8.80;3.05;;;26.20;99.90;;;;;;4932532;29;20577;-46
2022/11/14 12:28:09;;;;;;;16.58;3.83;;;26.10;99.90;;;;;;4931941;29;20461;-47
2022/11/14 12:30:36;;;;;;;18.85;7.20;;;26.10;99.90;;;;;;4933321;29;20032;-47
2022/11/14 12:33:21;;;;;;;20.27;7.68;;;26.10;99.90;;;;;;4933420;29;20024;-47
2022/11/14 12:35:51;;;;;;;11.48;4.03;;;26.00;99.90;;;;;;4933183;29;20031;-47
2022/11/14 12:38:19;;;;;;;20.60;4.55;;;26.00;99.90;;;;;;4933279;29;20035;-47
2022/11/14 12:40:57;;;;;;;15.23;3.75;;;25.90;99.90;;;;;;4933326;29;20545;-47
2022/11/14 12:43:35;;;;;;;14.23;3.92;;;25.90;99.90;;;;;;4935051;29;20028;-47
2022/11/14 12:46:07;;;;;;;11.73;4.93;;;25.80;99.90;;;;;;4935532;29;20365;-47
2022/11/14 12:48:44;;;;;;;11.80;5.55;;;25.70;99.90;;;;;;4935489;29;20032;-46
2022/11/14 12:51:25;;;;;;;13.25;4.20;;;25.60;99.90;;;;;;4935383;29;20023;-47
2022/11/14 12:53:57;;;;;;;13.45;4.53;;;25.50;99.90;;;;;;4933953;29;20455;-47
2022/11/14 12:56:29;;;;;;;11.77;4.43;;;25.50;99.90;;;;;;4935384;29;20031;-47